This is the latest recevied weather packets stored in our database for station/object VA5EVR-13. If no packets are shown the sender has not sent any weather packets the latest 10 day(s).
| Time | Temp. | Humidity | Pressure | Rain* | Wind** | Luminosity | Snow |
|---|---|---|---|---|---|---|---|
| 1778231412 | 4.44° C | 76% | 88.8 hPa | 0 mm | - | - | - |
| 1778230212 | 3.89° C | 76% | 88.8 hPa | 0 mm | - | - | - |
| 1778229612 | 3.89° C | 79% | 88.8 hPa | 0 mm | - | - | - |
| 1778229011 | 3.89° C | 79% | 88.8 hPa | 0 mm | - | - | - |
| 1778228412 | 3.89° C | 79% | 88.8 hPa | 0 mm | - | - | - |
| 1778227813 | 3.89° C | 80% | 88.8 hPa | 0 mm | - | - | - |
| 1778227212 | 3.89° C | 79% | 88.8 hPa | 0 mm | - | - | - |
| 1778226612 | 3.89° C | 78% | 88.8 hPa | 0 mm | - | - | - |
| 1778226012 | 3.33° C | 79% | 88.8 hPa | 0 mm | - | - | - |
| 1778225412 | 2.22° C | 80% | 88.8 hPa | 0 mm | - | - | - |
| 1778224812 | 1.67° C | 83% | 88.8 hPa | 0 mm | - | - | - |
| 1778223612 | 1.11° C | 82% | 88.8 hPa | 0 mm | - | - | - |
| 1778223012 | 1.67° C | 79% | 88.8 hPa | 0 mm | - | - | - |
| 1778222412 | 2.22° C | 77% | 88.8 hPa | 0 mm | - | - | - |
| 1778221811 | 2.78° C | 77% | 88.8 hPa | 0 mm | - | - | - |
| 1778221212 | 2.78° C | 75% | 88.8 hPa | 0 mm | - | - | - |
| 1778220612 | 2.78° C | 74% | 88.8 hPa | 0 mm | - | - | - |
| 1778220012 | 2.22° C | 74% | 88.8 hPa | 0 mm | - | - | - |
| 1778219413 | 1.67° C | 76% | 88.8 hPa | 0 mm | - | - | - |
| 1778218812 | 1.67° C | 78% | 88.8 hPa | 0 mm | - | - | - |
| 1778218211 | 2.22° C | 77% | 88.8 hPa | 0 mm | - | - | - |
| 1778217612 | 2.22° C | 75% | 88.8 hPa | 0 mm | - | - | - |
| 1778217011 | 2.22° C | 76% | 88.8 hPa | 0 mm | - | - | - |
| 1778216412 | 3.33° C | 74% | 88.8 hPa | 0 mm | - | - | - |
| 1778215812 | 4.44° C | 72% | 88.8 hPa | 0 mm | - | - | - |
* Rain latest hour (hover to see other rain measurements)
** Current wind speed in m/s (hover to see current wind gust speed)